Time;durP1;ratioP1;P1;durP2;ratioP2;P2;SDS_P1;SDS_P2;PMS_P1;PMS_P2;Temp;Humidity;BMP_temperature;BMP_pressure;BME280_temperature;BME280_humidity;BME280_pressure;Samples;Min_cycle;Max_cycle;Signal;HPM_P1;HPM_P2
2021/06/23 00:01:18;;;;;;;4.60;2.90;;;18.30;99.90;;;;;;5055724;28;20120;-80
2021/06/23 00:03:45;;;;;;;7.90;3.45;;;18.30;99.90;;;;;;5036927;28;20572;-80
2021/06/23 00:06:10;;;;;;;9.07;3.00;;;18.30;99.90;;;;;;5027683;28;20088;-80
2021/06/23 00:08:37;;;;;;;6.78;3.05;;;18.20;99.90;;;;;;5012482;28;20030;-80
2021/06/23 00:11:03;;;;;;;4.68;2.75;;;18.30;99.90;;;;;;5034721;28;20109;-80
2021/06/23 00:13:32;;;;;;;5.22;3.35;;;18.30;99.90;;;;;;5034831;28;20055;-81
2021/06/23 00:15:59;;;;;;;5.00;3.38;;;18.30;99.90;;;;;;5016380;28;20064;-81
2021/06/23 00:18:24;;;;;;;5.38;3.20;;;18.30;99.90;;;;;;5016302;28;20478;-81
2021/06/23 00:20:50;;;;;;;6.93;3.70;;;18.30;99.90;;;;;;5042833;22;20068;-78
2021/06/23 00:23:16;;;;;;;5.55;3.20;;;18.30;99.90;;;;;;5056689;28;20408;-78
2021/06/23 00:25:42;;;;;;;7.47;3.35;;;18.30;99.90;;;;;;5053505;28;20027;-78
2021/06/23 00:28:07;;;;;;;6.25;3.42;;;18.30;99.90;;;;;;5055167;28;20025;-78
2021/06/23 00:30:33;;;;;;;5.00;3.70;;;18.30;99.90;;;;;;5056713;28;20021;-78
2021/06/23 00:33:09;;;;;;;5.60;3.20;;;18.20;99.90;;;;;;5054118;28;20432;-78
2021/06/23 00:35:35;;;;;;;5.22;3.08;;;18.30;99.90;;;;;;5053611;28;20128;-79
2021/06/23 00:38:02;;;;;;;5.03;3.20;;;18.30;99.90;;;;;;5033229;28;20029;-79
2021/06/23 00:40:28;;;;;;;5.22;3.22;;;18.30;99.90;;;;;;5032979;28;20029;-79
2021/06/23 00:42:54;;;;;;;5.68;2.80;;;18.30;99.90;;;;;;5033433;28;20079;-80
2021/06/23 00:45:20;;;;;;;5.03;3.10;;;18.20;99.90;;;;;;5073018;28;20024;-80
2021/06/23 00:47:47;;;;;;;5.80;3.38;;;18.20;99.90;;;;;;5073285;28;20032;-80
2021/06/23 00:50:16;;;;;;;5.05;3.13;;;18.20;99.90;;;;;;5062400;28;20126;-80
2021/06/23 00:52:42;;;;;;;8.73;2.92;;;18.10;99.90;;;;;;5044370;28;20474;-80
2021/06/23 00:55:08;;;;;;;6.25;2.95;;;18.10;99.90;;;;;;5032906;28;20029;-80
2021/06/23 00:57:36;;;;;;;5.63;3.08;;;18.10;99.90;;;;;;5034694;28;20032;-80
2021/06/23 01:00:04;;;;;;;4.82;2.45;;;18.00;99.90;;;;;;5035876;28;20021;-80
2021/06/23 01:02:29;;;;;;;3.45;2.03;;;18.00;99.90;;;;;;5050038;28;20031;-80
2021/06/23 01:04:56;;;;;;;3.72;2.38;;;17.90;99.90;;;;;;5053909;28;20103;-80
2021/06/23 01:07:22;;;;;;;4.70;2.20;;;17.90;99.90;;;;;;5054014;28;20361;-80
2021/06/23 01:09:48;;;;;;;3.95;2.28;;;17.90;99.90;;;;;;5053841;28;20024;-80
2021/06/23 01:12:19;;;;;;;4.40;2.05;;;17.90;99.90;;;;;;5038086;28;20053;-80
2021/06/23 01:14:47;;;;;;;4.80;1.92;;;17.90;99.90;;;;;;5032668;28;20678;-80
2021/06/23 01:17:13;;;;;;;3.70;2.08;;;17.90;99.90;;;;;;5033564;28;20033;-80
2021/06/23 01:19:44;;;;;;;3.88;2.28;;;17.90;99.90;;;;;;5032373;28;20029;-80
2021/06/23 01:22:16;;;;;;;3.80;2.20;;;17.90;99.90;;;;;;5015792;28;20512;-80
2021/06/23 01:24:42;;;;;;;5.15;2.10;;;17.90;99.90;;;;;;5044046;28;20017;-80
2021/06/23 01:27:09;;;;;;;3.45;1.95;;;17.90;99.90;;;;;;5054534;28;20033;-80
2021/06/23 01:29:36;;;;;;;4.20;2.35;;;17.90;99.90;;;;;;5038259;28;20108;-80
2021/06/23 01:32:01;;;;;;;3.55;2.10;;;17.90;99.90;;;;;;5042511;28;20103;-80
2021/06/23 01:34:27;;;;;;;3.55;1.90;;;17.90;99.90;;;;;;5058023;28;20068;-80
2021/06/23 01:36:53;;;;;;;4.45;2.08;;;17.90;99.90;;;;;;5066205;28;20044;-80
2021/06/23 01:39:18;;;;;;;4.57;2.38;;;18.00;99.90;;;;;;5034887;28;20041;-80
2021/06/23 01:41:44;;;;;;;4.28;2.00;;;18.00;99.90;;;;;;5034756;28;20029;-80
2021/06/23 01:44:10;;;;;;;4.97;2.47;;;17.90;99.90;;;;;;5035302;28;20032;-80
2021/06/23 01:46:35;;;;;;;3.55;2.17;;;17.90;99.90;;;;;;5035062;28;20113;-80
2021/06/23 01:49:01;;;;;;;5.45;2.40;;;17.90;99.90;;;;;;5035517;28;20037;-80
2021/06/23 01:51:27;;;;;;;5.63;2.25;;;18.00;99.90;;;;;;5033986;28;20029;-80
2021/06/23 01:53:52;;;;;;;3.92;1.95;;;17.80;99.90;;;;;;5039992;28;20033;-80
2021/06/23 01:56:18;;;;;;;4.10;2.20;;;17.80;99.90;;;;;;5016966;28;20091;-80
2021/06/23 01:58:44;;;;;;;4.03;2.30;;;17.80;99.90;;;;;;5016984;28;20027;-80
2021/06/23 02:01:10;;;;;;;4.55;2.17;;;17.80;99.90;;;;;;5017136;28;20056;-80
2021/06/23 02:03:54;;;;;;;6.78;2.47;;;17.80;99.90;;;;;;5049954;28;20036;-80
2021/06/23 02:06:41;;;;;;;4.30;2.53;;;17.80;99.90;;;;;;5057517;28;20149;-80
2021/06/23 02:09:27;;;;;;;4.10;2.22;;;17.70;99.90;;;;;;5048749;28;20026;-80
2021/06/23 02:12:20;;;;;;;3.78;1.98;;;17.60;99.90;;;;;;5038663;28;20079;-80
2021/06/23 02:14:48;;;;;;;4.97;2.67;;;17.60;99.90;;;;;;5053852;28;20060;-80
2021/06/23 02:17:15;;;;;;;4.65;2.35;;;17.70;99.90;;;;;;5058079;28;20036;-80
2021/06/23 02:19:46;;;;;;;4.55;2.30;;;17.70;99.90;;;;;;5041661;28;20029;-80
2021/06/23 02:22:18;;;;;;;4.68;2.45;;;17.70;99.90;;;;;;5020366;28;20025;-80
2021/06/23 02:24:45;;;;;;;3.22;2.03;;;17.70;99.90;;;;;;5048101;28;20090;-80
2021/06/23 02:27:13;;;;;;;4.15;2.40;;;17.70;99.90;;;;;;5056702;28;20508;-80
2021/06/23 02:29:40;;;;;;;4.07;2.00;;;17.70;99.90;;;;;;5020501;28;20029;-80
2021/06/23 02:32:10;;;;;;;6.78;2.45;;;17.70;99.90;;;;;;5039631;28;20041;-80
2021/06/23 02:34:36;;;;;;;4.13;2.53;;;17.70;99.90;;;;;;5054881;28;20025;-80
2021/06/23 02:37:02;;;;;;;5.18;2.65;;;17.70;99.90;;;;;;5056383;28;20059;-80
2021/06/23 02:39:28;;;;;;;4.10;2.28;;;17.70;99.90;;;;;;5037085;28;20044;-80
2021/06/23 02:41:54;;;;;;;3.72;2.10;;;17.60;99.90;;;;;;5037374;28;20025;-80
2021/06/23 02:44:20;;;;;;;7.25;2.60;;;17.70;99.90;;;;;;5036974;28;20063;-80
2021/06/23 02:46:45;;;;;;;5.65;2.47;;;17.60;99.90;;;;;;5036997;28;20355;-80
2021/06/23 02:49:11;;;;;;;4.57;2.40;;;17.60;99.90;;;;;;5037384;28;20090;-80
2021/06/23 02:51:41;;;;;;;4.65;2.50;;;17.50;99.90;;;;;;5037371;28;20026;-80
2021/06/23 02:54:08;;;;;;;3.78;2.20;;;17.50;99.90;;;;;;5036284;28;20033;-80
2021/06/23 02:56:34;;;;;;;4.13;2.22;;;17.40;99.90;;;;;;5051185;28;20032;-80
2021/06/23 02:59:02;;;;;;;5.00;2.88;;;17.40;99.90;;;;;;5057800;28;20057;-80
2021/06/23 03:01:28;;;;;;;4.38;2.30;;;17.40;99.90;;;;;;5053217;28;20402;-80
2021/06/23 03:03:54;;;;;;;4.45;2.85;;;17.40;99.90;;;;;;5054031;28;20025;-80
2021/06/23 03:06:20;;;;;;;4.82;2.67;;;17.30;99.90;;;;;;5057330;28;20044;-80
2021/06/23 03:08:45;;;;;;;5.13;3.28;;;17.20;99.90;;;;;;5057359;28;20048;-80
2021/06/23 03:11:11;;;;;;;4.47;2.80;;;17.20;99.90;;;;;;5043187;28;20382;-80
2021/06/23 03:13:37;;;;;;;4.28;2.85;;;17.20;99.90;;;;;;5036054;28;20030;-80
2021/06/23 03:16:04;;;;;;;5.55;3.53;;;17.20;99.90;;;;;;5023169;28;20079;-80
2021/06/23 03:18:32;;;;;;;8.05;3.53;;;17.20;99.90;;;;;;5048331;28;20033;-80
2021/06/23 03:20:59;;;;;;;5.95;3.45;;;17.20;99.90;;;;;;5036695;28;20482;-80
2021/06/23 03:23:24;;;;;;;7.22;3.58;;;17.20;99.90;;;;;;5036158;28;20032;-80
2021/06/23 03:25:50;;;;;;;5.82;3.88;;;17.30;99.90;;;;;;5055996;28;20021;-80
2021/06/23 03:28:16;;;;;;;5.57;3.72;;;17.30;99.90;;;;;;5019244;28;20049;-80
2021/06/23 03:30:42;;;;;;;7.22;3.42;;;17.30;99.90;;;;;;5036376;28;20071;-80
2021/06/23 03:33:07;;;;;;;5.80;3.20;;;17.30;99.90;;;;;;5046724;28;20061;-80
2021/06/23 03:35:33;;;;;;;4.57;2.75;;;17.30;99.90;;;;;;5045830;28;20036;-80
2021/06/23 03:37:59;;;;;;;4.53;2.92;;;17.30;99.90;;;;;;5028266;28;20040;-80
2021/06/23 03:40:25;;;;;;;6.63;2.58;;;17.20;99.90;;;;;;5056908;28;20025;-80
2021/06/23 03:42:52;;;;;;;5.70;2.78;;;17.20;99.90;;;;;;5057169;28;20048;-79
2021/06/23 03:45:18;;;;;;;4.88;2.53;;;17.20;99.90;;;;;;5039813;28;20040;-80
2021/06/23 03:47:44;;;;;;;6.50;2.53;;;17.30;99.90;;;;;;5018718;28;20056;-80
2021/06/23 03:50:11;;;;;;;4.05;2.00;;;17.20;99.90;;;;;;5036584;28;20018;-80
2021/06/23 03:52:37;;;;;;;5.05;2.45;;;17.30;99.90;;;;;;5036148;28;20064;-80
2021/06/23 03:55:05;;;;;;;4.07;2.22;;;17.20;99.90;;;;;;5036028;28;20029;-80
2021/06/23 03:57:31;;;;;;;3.72;2.28;;;17.30;99.90;;;;;;5036688;28;20033;-80
2021/06/23 03:59:56;;;;;;;3.38;1.88;;;17.30;99.90;;;;;;5053502;28;20509;-80
2021/06/23 04:02:22;;;;;;;3.63;2.00;;;17.20;99.90;;;;;;5048519;28;20055;-80
2021/06/23 04:04:48;;;;;;;3.17;1.65;;;17.30;99.90;;;;;;5023045;28;20022;-80
2021/06/23 04:07:14;;;;;;;3.33;1.70;;;17.30;99.90;;;;;;5036392;28;20061;-80
2021/06/23 04:09:40;;;;;;;3.80;1.70;;;17.30;99.90;;;;;;5029600;28;20035;-80
2021/06/23 04:12:06;;;;;;;3.92;1.90;;;17.40;99.90;;;;;;5031409;28;20029;-80
2021/06/23 04:14:32;;;;;;;4.43;1.75;;;17.30;99.90;;;;;;5035087;28;20108;-80
2021/06/23 04:16:58;;;;;;;4.72;1.88;;;17.40;99.90;;;;;;5047148;28;20119;-80
2021/06/23 04:19:24;;;;;;;4.55;2.30;;;17.40;99.90;;;;;;5033682;28;20053;-80
2021/06/23 04:21:50;;;;;;;3.55;1.80;;;17.40;99.90;;;;;;5042687;28;20036;-80
2021/06/23 04:24:16;;;;;;;4.93;2.60;;;17.40;99.90;;;;;;5047141;28;20033;-80
2021/06/23 04:26:43;;;;;;;4.93;2.47;;;17.40;99.90;;;;;;5054630;28;20104;-80
2021/06/23 04:29:09;;;;;;;4.47;2.10;;;17.40;99.90;;;;;;5035496;28;20490;-80
2021/06/23 04:31:35;;;;;;;4.60;2.63;;;17.50;99.90;;;;;;5044876;28;20051;-80
2021/06/23 04:34:01;;;;;;;4.32;2.40;;;17.50;99.90;;;;;;5033294;28;20036;-80
2021/06/23 04:36:27;;;;;;;3.72;2.10;;;17.60;99.90;;;;;;5055286;28;20017;-80
2021/06/23 04:38:52;;;;;;;4.28;2.10;;;17.60;99.90;;;;;;5053422;28;20397;-80
2021/06/23 04:41:18;;;;;;;4.78;2.30;;;17.60;99.90;;;;;;5051936;28;20037;-80
2021/06/23 04:43:44;;;;;;;4.78;2.63;;;17.60;99.90;;;;;;5053760;28;20028;-80
2021/06/23 04:46:10;;;;;;;6.20;2.08;;;17.50;99.90;;;;;;5054483;28;20566;-80
2021/06/23 04:48:36;;;;;;;3.90;2.22;;;17.50;99.90;;;;;;5035502;28;20227;-80
2021/06/23 04:51:02;;;;;;;4.55;2.35;;;17.60;99.90;;;;;;5044984;28;20072;-80
2021/06/23 04:53:28;;;;;;;3.47;1.73;;;17.80;99.90;;;;;;5033612;28;20021;-80
2021/06/23 04:55:54;;;;;;;4.55;2.30;;;17.70;99.90;;;;;;5031661;28;20028;-81
2021/06/23 04:58:21;;;;;;;4.28;2.58;;;17.80;99.90;;;;;;5053807;28;20025;-81
2021/06/23 05:00:47;;;;;;;4.05;2.20;;;17.90;99.90;;;;;;5054232;28;20025;-80
2021/06/23 05:03:12;;;;;;;4.50;2.17;;;18.00;99.90;;;;;;5046945;28;20081;-81
2021/06/23 05:05:39;;;;;;;4.78;2.13;;;18.20;99.90;;;;;;5055280;28;20033;-80
2021/06/23 05:08:06;;;;;;;4.57;1.60;;;18.30;99.90;;;;;;5054684;28;20029;-80
2021/06/23 05:10:33;;;;;;;3.63;1.50;;;18.40;99.90;;;;;;5049348;28;20048;-80
2021/06/23 05:12:58;;;;;;;3.15;1.50;;;18.40;99.90;;;;;;5049851;28;20474;-79
2021/06/23 05:15:24;;;;;;;3.03;1.50;;;18.40;99.90;;;;;;5052000;28;20025;-79
2021/06/23 05:17:51;;;;;;;4.30;2.00;;;18.50;99.90;;;;;;5050274;28;20030;-79
2021/06/23 05:20:17;;;;;;;4.00;1.77;;;18.60;99.90;;;;;;5034591;28;20030;-79
2021/06/23 05:22:46;;;;;;;3.30;1.65;;;18.70;99.90;;;;;;5015952;28;20436;-79
2021/06/23 05:25:14;;;;;;;2.88;1.27;;;18.70;99.90;;;;;;5049521;28;20029;-79
2021/06/23 05:27:39;;;;;;;4.50;1.50;;;18.70;99.90;;;;;;5034753;28;20032;-79
2021/06/23 05:30:06;;;;;;;3.05;1.17;;;18.80;99.90;;;;;;5052313;28;20025;-79
2021/06/23 05:32:32;;;;;;;3.53;1.27;;;18.80;99.90;;;;;;5049315;28;20053;-79
2021/06/23 05:34:57;;;;;;;2.85;1.35;;;18.80;99.90;;;;;;5056541;28;20025;-78
2021/06/23 05:37:23;;;;;;;2.88;1.25;;;18.90;99.90;;;;;;5033262;28;20051;-78
2021/06/23 05:39:49;;;;;;;2.05;1.00;;;18.90;99.90;;;;;;5046908;28;20022;-78
2021/06/23 05:42:14;;;;;;;3.60;1.20;;;19.10;99.90;;;;;;5050873;28;20048;-79
2021/06/23 05:44:40;;;;;;;2.33;0.93;;;19.10;99.90;;;;;;5051856;28;20048;-78
2021/06/23 05:47:05;;;;;;;2.38;1.15;;;19.20;99.90;;;;;;5050636;28;20366;-79
2021/06/23 05:49:31;;;;;;;2.47;0.88;;;19.20;99.90;;;;;;5050194;28;20021;-80
2021/06/23 05:51:57;;;;;;;1.58;0.70;;;19.30;99.90;;;;;;5050977;28;20037;-80
2021/06/23 05:54:22;;;;;;;2.55;0.88;;;19.40;99.90;;;;;;5049358;28;20021;-80
2021/06/23 05:56:48;;;;;;;3.13;0.70;;;19.60;99.90;;;;;;5052067;28;20059;-80
2021/06/23 05:59:14;;;;;;;1.85;0.80;;;19.60;99.90;;;;;;5050713;28;20025;-77
2021/06/23 06:01:39;;;;;;;2.33;1.00;;;19.70;99.90;;;;;;5049508;28;20033;-77
2021/06/23 06:04:05;;;;;;;2.45;0.90;;;19.50;99.90;;;;;;5046981;28;20457;-78
2021/06/23 06:06:31;;;;;;;3.65;0.90;;;19.50;99.90;;;;;;5036738;28;20101;-78
2021/06/23 06:08:56;;;;;;;3.92;1.20;;;19.50;99.90;;;;;;5019815;28;20504;-78
2021/06/23 06:11:22;;;;;;;2.75;1.33;;;19.50;99.90;;;;;;5047507;28;20112;-78
2021/06/23 06:13:48;;;;;;;3.83;1.30;;;19.40;99.90;;;;;;5017302;28;20577;-78
2021/06/23 06:16:13;;;;;;;2.67;1.40;;;19.50;99.90;;;;;;5047214;28;20033;-78
2021/06/23 06:18:39;;;;;;;2.83;1.30;;;19.50;99.90;;;;;;5040331;28;20025;-78
2021/06/23 06:21:05;;;;;;;2.67;1.25;;;19.50;99.90;;;;;;5041759;28;20064;-78
2021/06/23 06:23:31;;;;;;;1.85;1.00;;;19.60;99.90;;;;;;5036949;28;20048;-78
2021/06/23 06:25:56;;;;;;;2.70;1.05;;;19.70;99.90;;;;;;5030169;28;20480;-78
2021/06/23 06:28:22;;;;;;;1.73;0.80;;;19.80;99.90;;;;;;5031777;28;20025;-78
2021/06/23 06:30:48;;;;;;;1.30;0.60;;;19.90;99.90;;;;;;5033258;28;20032;-78
2021/06/23 06:33:15;;;;;;;1.80;0.77;;;20.00;99.90;;;;;;5036733;28;20018;-78
2021/06/23 06:35:41;;;;;;;2.00;0.68;;;20.10;99.90;;;;;;5040652;28;20047;-78
2021/06/23 06:38:07;;;;;;;2.42;0.65;;;20.10;99.90;;;;;;5055667;28;20032;-78
2021/06/23 06:40:32;;;;;;;2.00;0.68;;;20.00;99.90;;;;;;5048422;28;20036;-78
2021/06/23 06:42:58;;;;;;;3.47;0.93;;;19.80;99.90;;;;;;5049177;28;20032;-78
2021/06/23 06:45:24;;;;;;;2.60;1.00;;;19.70;99.90;;;;;;5041568;28;20108;-78
2021/06/23 06:47:49;;;;;;;3.40;0.80;;;19.50;99.90;;;;;;5050271;28;20083;-78
2021/06/23 06:50:15;;;;;;;2.97;0.75;;;19.30;99.90;;;;;;5049879;28;20029;-78
2021/06/23 06:52:41;;;;;;;2.33;0.90;;;19.30;99.90;;;;;;5031220;28;20592;-80
2021/06/23 06:55:08;;;;;;;2.08;1.00;;;19.20;99.90;;;;;;5033244;28;20029;-85
2021/06/23 06:57:34;;;;;;;3.10;1.13;;;19.20;99.90;;;;;;5014109;28;20033;-84
2021/06/23 07:00:00;;;;;;;3.35;1.10;;;19.40;99.90;;;;;;5014382;28;20026;-85
2021/06/23 07:02:26;;;;;;;5.55;1.00;;;19.40;99.90;;;;;;5031618;28;20498;-85
2021/06/23 07:04:51;;;;;;;2.03;1.15;;;19.60;99.90;;;;;;5053377;28;20028;-85
2021/06/23 07:07:17;;;;;;;2.53;1.00;;;19.70;99.90;;;;;;5059459;28;20040;-85
2021/06/23 07:09:42;;;;;;;1.77;0.85;;;19.90;99.90;;;;;;5051895;28;20040;-86
2021/06/23 07:12:09;;;;;;;2.47;0.75;;;20.10;99.90;;;;;;5033306;28;20140;-85
2021/06/23 07:14:34;;;;;;;2.30;0.80;;;20.30;99.90;;;;;;5031979;28;20048;-85
2021/06/23 07:17:00;;;;;;;3.83;1.15;;;20.50;99.90;;;;;;5030727;28;20034;-85
2021/06/23 07:19:26;;;;;;;1.20;0.60;;;20.60;99.90;;;;;;5013620;28;20034;-85
2021/06/23 07:21:52;;;;;;;1.42;0.73;;;20.80;99.90;;;;;;5013890;28;20087;-85
2021/06/23 07:24:18;;;;;;;2.10;0.77;;;21.10;99.90;;;;;;5038706;28;20109;-85
2021/06/23 07:26:47;;;;;;;1.48;0.60;;;21.20;99.90;;;;;;5033298;28;20142;-86
2021/06/23 07:29:13;;;;;;;1.35;0.70;;;21.40;99.90;;;;;;5031456;28;20025;-85
2021/06/23 07:31:45;;;;;;;2.92;0.68;;;21.60;99.90;;;;;;5031800;28;20026;-85
2021/06/23 07:36:41;;;;;;;1.08;0.57;;;21.50;99.90;;;;;;5052828;28;20065;-85
2021/06/23 07:39:10;;;;;;;1.63;0.75;;;21.60;99.90;;;;;;5013886;28;20394;-86
2021/06/23 07:41:36;;;;;;;3.13;0.90;;;21.70;99.90;;;;;;5012897;28;20018;-85
2021/06/23 07:44:03;;;;;;;2.75;0.90;;;21.50;99.90;;;;;;5013382;28;20029;-85
2021/06/23 07:46:36;;;;;;;2.88;0.88;;;21.50;99.90;;;;;;5025646;28;20030;-85
2021/06/23 07:49:02;;;;;;;2.70;0.95;;;21.40;99.90;;;;;;5023107;28;20116;-85
2021/06/23 07:51:39;;;;;;;1.65;0.80;;;21.60;99.90;;;;;;5038087;28;20037;-84
2021/06/23 07:56:54;;;;;;;2.70;1.08;;;21.80;99.90;;;;;;5030095;28;20037;-85
2021/06/23 08:10:05;;;;;;;1.90;0.90;;;21.30;99.90;;;;;;5032662;28;20044;-85
2021/06/23 08:12:50;;;;;;;1.80;1.00;;;21.40;99.90;;;;;;5012499;28;20504;-85
2021/06/23 08:15:16;;;;;;;4.10;1.20;;;21.70;99.90;;;;;;5013670;28;20029;-85
2021/06/23 08:17:42;;;;;;;2.42;0.93;;;22.10;99.90;;;;;;5030407;28;20042;-85
2021/06/23 08:20:08;;;;;;;3.72;1.20;;;22.30;99.90;;;;;;5030335;28;20069;-84
2021/06/23 08:22:33;;;;;;;2.33;1.15;;;22.10;99.90;;;;;;5013652;28;20121;-85
2021/06/23 08:24:59;;;;;;;7.88;1.45;;;22.10;99.90;;;;;;5043826;28;20096;-85
2021/06/23 08:27:25;;;;;;;2.15;0.90;;;22.30;99.90;;;;;;5032931;28;20469;-85
2021/06/23 08:29:50;;;;;;;1.98;0.93;;;22.60;99.90;;;;;;5039719;28;20071;-85
2021/06/23 08:32:16;;;;;;;3.70;1.00;;;22.80;99.90;;;;;;5050669;28;20078;-85
2021/06/23 08:34:41;;;;;;;1.70;1.00;;;23.10;99.90;;;;;;5051345;28;20028;-85
2021/06/23 08:37:07;;;;;;;2.10;0.88;;;23.10;99.90;;;;;;5052392;28;20029;-85
2021/06/23 08:39:33;;;;;;;1.48;0.77;;;23.20;99.90;;;;;;5014873;28;20102;-85
2021/06/23 08:41:58;;;;;;;3.20;0.98;;;23.50;99.90;;;;;;5012068;28;20018;-85
2021/06/23 08:44:24;;;;;;;1.48;0.57;;;23.80;99.90;;;;;;5012180;28;20026;-85
2021/06/23 08:46:51;;;;;;;1.45;0.65;;;23.80;99.90;;;;;;5020865;28;20037;-84
2021/06/23 08:49:17;;;;;;;1.90;0.70;;;23.80;99.90;;;;;;5029991;28;20178;-85
2021/06/23 08:51:43;;;;;;;6.68;0.60;;;24.00;99.90;;;;;;5027235;28;20123;-85
2021/06/23 08:54:09;;;;;;;1.92;0.90;;;23.80;99.90;;;;;;5043757;28;20454;-85
2021/06/23 08:56:35;;;;;;;2.08;0.90;;;23.70;99.90;;;;;;5029908;28;20366;-85
2021/06/23 08:59:05;;;;;;;1.67;1.05;;;23.80;99.90;;;;;;5028731;28;20072;-85
2021/06/23 09:01:32;;;;;;;3.22;1.00;;;23.90;99.90;;;;;;5029906;28;20021;-84
2021/06/23 09:04:00;;;;;;;2.05;0.50;;;24.00;99.90;;;;;;5042494;28;20496;-84
2021/06/23 09:06:45;;;;;;;1.25;0.60;;;24.10;99.90;;;;;;5050058;28;20075;-84
2021/06/23 09:09:31;;;;;;;3.47;0.70;;;24.60;99.90;;;;;;5043350;28;20040;-85
2021/06/23 09:11:59;;;;;;;0.90;0.40;;;24.70;99.90;;;;;;5038134;28;20095;-85
2021/06/23 09:14:28;;;;;;;1.17;0.45;;;24.70;99.90;;;;;;5031483;28;20031;-84
2021/06/23 09:17:14;;;;;;;1.38;0.57;;;24.90;99.90;;;;;;5047708;28;20029;-85
2021/06/23 09:20:01;;;;;;;1.95;0.50;;;24.90;99.90;;;;;;5012009;28;20026;-84
2021/06/23 09:22:45;;;;;;;0.98;0.40;;;24.90;99.90;;;;;;5011977;28;20524;-84
2021/06/23 09:25:11;;;;;;;1.20;0.40;;;24.80;99.90;;;;;;5037294;28;20498;-84
2021/06/23 09:27:48;;;;;;;1.20;0.63;;;25.10;99.90;;;;;;5028642;28;20056;-84
2021/06/23 09:30:34;;;;;;;1.08;0.40;;;25.40;99.90;;;;;;5011673;28;20029;-83
2021/06/23 09:33:11;;;;;;;1.55;0.40;;;25.00;99.90;;;;;;5016935;28;20021;-84
2021/06/23 09:35:39;;;;;;;0.95;0.40;;;25.00;99.90;;;;;;5037015;28;20037;-84
2021/06/23 09:38:06;;;;;;;0.47;0.30;;;25.30;99.90;;;;;;5069463;28;20025;-84
2021/06/23 09:40:41;;;;;;;2.15;0.45;;;25.30;99.90;;;;;;5050786;28;20063;-85
2021/06/23 09:43:07;;;;;;;0.73;0.38;;;25.50;99.90;;;;;;5049304;28;20018;-85
2021/06/23 09:45:33;;;;;;;0.50;0.20;;;25.60;99.50;;;;;;5048399;28;20029;-84
2021/06/23 09:48:06;;;;;;;0.45;0.30;;;25.50;99.70;;;;;;5049286;28;20116;-84
2021/06/23 09:50:33;;;;;;;1.05;0.30;;;25.80;99.00;;;;;;5030865;28;20032;-84
2021/06/23 09:53:08;;;;;;;0.88;0.30;;;25.90;97.80;;;;;;5048668;28;20021;-85
2021/06/23 09:55:45;;;;;;;1.05;0.20;;;26.20;97.50;;;;;;5030554;28;20025;-85
2021/06/23 09:58:17;;;;;;;0.60;0.30;;;26.40;96.40;;;;;;5031529;28;20032;-85
2021/06/23 10:00:59;;;;;;;0.20;0.20;;;26.40;95.10;;;;;;5039299;28;20033;-85
2021/06/23 10:03:26;;;;;;;0.60;0.22;;;26.70;95.80;;;;;;5034691;28;20029;-85
2021/06/23 10:05:53;;;;;;;0.85;0.13;;;26.70;95.30;;;;;;5049392;28;20024;-85
2021/06/23 10:08:27;;;;;;;1.67;0.20;;;26.70;95.70;;;;;;5049226;28;20036;-85
2021/06/23 10:10:54;;;;;;;0.40;0.10;;;26.60;94.90;;;;;;5034685;28;20021;-85
2021/06/23 10:13:19;;;;;;;0.73;0.20;;;27.00;95.90;;;;;;5029068;28;20036;-85
2021/06/23 10:15:49;;;;;;;0.30;0.20;;;27.10;93.10;;;;;;5011940;28;20021;-85
2021/06/23 10:18:24;;;;;;;0.75;0.20;;;27.00;91.70;;;;;;5030547;28;20032;-85
2021/06/23 10:20:53;;;;;;;0.50;0.10;;;27.10;91.50;;;;;;5047237;28;20037;-85
2021/06/23 10:23:19;;;;;;;1.00;0.15;;;27.10;89.90;;;;;;5048793;28;20048;-85
2021/06/23 10:25:45;;;;;;;0.40;0.15;;;27.30;92.10;;;;;;5030769;28;20106;-85
2021/06/23 10:28:11;;;;;;;0.60;0.20;;;27.40;90.80;;;;;;5031680;28;20028;-85
2021/06/23 10:30:37;;;;;;;0.63;0.10;;;27.50;90.40;;;;;;5032825;28;20033;-84
2021/06/23 10:33:03;;;;;;;0.30;0.10;;;27.60;89.40;;;;;;5040286;28;20028;-85
2021/06/23 10:35:28;;;;;;;0.40;0.10;;;27.70;89.40;;;;;;5056110;28;20477;-85
2021/06/23 10:37:55;;;;;;;0.52;0.20;;;27.60;87.10;;;;;;5040326;28;20095;-85
2021/06/23 10:40:21;;;;;;;1.50;0.25;;;27.70;84.00;;;;;;5032035;28;20018;-85
2021/06/23 10:42:47;;;;;;;0.52;0.13;;;27.60;85.10;;;;;;5014908;28;20026;-85
2021/06/23 10:45:15;;;;;;;0.30;0.20;;;27.70;87.00;;;;;;5031008;28;20028;-85
2021/06/23 10:47:46;;;;;;;1.65;0.10;;;27.40;84.20;;;;;;5032279;28;20079;-85
2021/06/23 10:50:28;;;;;;;0.20;0.10;;;27.20;82.70;;;;;;5014472;28;20025;-84
2021/06/23 10:52:54;;;;;;;0.65;0.28;;;27.00;83.10;;;;;;5031078;28;20025;-85
2021/06/23 10:55:22;;;;;;;0.38;0.10;;;27.40;86.50;;;;;;5014605;28;20117;-84
2021/06/23 10:58:14;;;;;;;0.20;0.10;;;28.00;86.80;;;;;;5032320;28;20029;-85
2021/06/23 11:00:44;;;;;;;0.57;0.10;;;27.80;80.50;;;;;;5030019;28;20057;-85
2021/06/23 11:03:14;;;;;;;0.35;0.13;;;27.80;81.20;;;;;;5037237;28;20035;-85
2021/06/23 11:05:42;;;;;;;0.40;0.20;;;27.70;83.80;;;;;;5050336;28;20104;-85
2021/06/23 11:08:21;;;;;;;0.38;0.17;;;27.70;80.00;;;;;;5052103;28;20013;-85
2021/06/23 11:10:48;;;;;;;0.68;0.10;;;27.90;77.90;;;;;;5033329;28;20038;-85
2021/06/23 11:13:40;;;;;;;0.95;0.15;;;28.00;79.90;;;;;;5014188;28;20018;-84
2021/06/23 11:16:07;;;;;;;0.85;0.20;;;28.10;81.80;;;;;;5028738;28;20029;-85
2021/06/23 11:18:38;;;;;;;0.65;0.22;;;28.20;83.20;;;;;;5033469;28;20025;-85
2021/06/23 11:21:06;;;;;;;0.95;0.10;;;28.60;81.80;;;;;;5051603;28;20037;-85
2021/06/23 11:23:47;;;;;;;0.98;0.20;;;28.50;75.70;;;;;;5051253;28;20109;-85
2021/06/23 11:26:18;;;;;;;0.50;0.10;;;28.70;77.50;;;;;;5051920;28;20385;-85
2021/06/23 11:28:45;;;;;;;0.43;0.15;;;28.80;79.30;;;;;;5049196;28;20028;-85
2021/06/23 11:31:11;;;;;;;0.30;0.10;;;28.80;78.10;;;;;;5051248;28;20385;-85
2021/06/23 11:33:36;;;;;;;0.65;0.20;;;29.00;74.20;;;;;;5051003;28;20028;-85
2021/06/23 11:36:08;;;;;;;0.50;0.10;;;29.20;75.70;;;;;;5043027;28;20080;-85
2021/06/23 11:38:34;;;;;;;0.30;0.10;;;29.30;78.10;;;;;;5029369;28;20018;-85
2021/06/23 11:41:01;;;;;;;0.60;0.10;;;29.30;75.80;;;;;;5031279;28;20024;-85
2021/06/23 11:43:27;;;;;;;0.20;0.10;;;29.80;76.30;;;;;;5018695;28;20059;-85
2021/06/23 11:45:53;;;;;;;0.13;0.10;;;30.00;75.10;;;;;;5050853;28;20021;-85
2021/06/23 11:48:19;;;;;;;0.45;0.20;;;30.20;76.80;;;;;;5033191;28;20098;-84
2021/06/23 11:50:46;;;;;;;0.17;0.10;;;30.10;77.60;;;;;;5027110;28;20485;-85
2021/06/23 11:53:15;;;;;;;1.15;0.10;;;29.10;77.30;;;;;;5052295;28;20025;-84
2021/06/23 11:55:42;;;;;;;0.28;0.10;;;29.10;80.20;;;;;;5036205;28;20056;-84
2021/06/23 11:58:07;;;;;;;0.63;0.20;;;29.10;77.10;;;;;;5023068;28;20615;-85
2021/06/23 12:00:35;;;;;;;0.73;0.10;;;29.10;76.40;;;;;;5050087;28;20028;-84
2021/06/23 12:03:02;;;;;;;0.50;0.20;;;28.40;78.00;;;;;;5030247;28;20060;-84
2021/06/23 12:05:30;;;;;;;0.30;0.20;;;27.90;77.20;;;;;;5050151;28;20021;-84
2021/06/23 12:07:56;;;;;;;0.40;0.10;;;27.80;80.50;;;;;;5034920;28;20021;-84
2021/06/23 12:10:25;;;;;;;1.17;0.10;;;28.20;80.20;;;;;;5050080;28;20025;-85
2021/06/23 12:12:52;;;;;;;0.47;0.20;;;28.90;79.60;;;;;;5050763;28;20029;-85
2021/06/23 12:15:22;;;;;;;0.45;0.20;;;28.80;78.90;;;;;;5048822;28;20131;-84
2021/06/23 12:17:51;;;;;;;0.47;0.15;;;28.60;76.60;;;;;;5030106;28;20094;-85
2021/06/23 12:20:17;;;;;;;0.77;0.13;;;28.60;76.10;;;;;;5043432;28;20025;-84
2021/06/23 12:22:43;;;;;;;0.80;0.20;;;29.30;75.50;;;;;;5031486;28;20397;-84
2021/06/23 12:25:11;;;;;;;0.20;0.10;;;29.90;75.90;;;;;;5047887;28;20021;-84
2021/06/23 12:27:38;;;;;;;0.63;0.20;;;29.80;73.50;;;;;;5031416;28;20116;-84
2021/06/23 12:30:06;;;;;;;0.68;0.22;;;29.30;72.40;;;;;;5030708;28;20021;-84
2021/06/23 12:32:31;;;;;;;0.80;0.20;;;28.90;76.00;;;;;;5031880;28;20481;-85
2021/06/23 12:34:58;;;;;;;0.52;0.28;;;28.40;78.70;;;;;;5029892;28;20029;-84
2021/06/23 12:37:24;;;;;;;0.95;0.28;;;28.30;78.80;;;;;;5048715;28;20040;-84
2021/06/23 12:39:50;;;;;;;0.55;0.10;;;28.00;76.50;;;;;;5026742;28;20025;-83
2021/06/23 12:42:15;;;;;;;0.80;0.20;;;27.70;75.30;;;;;;5030627;28;20029;-83
2021/06/23 12:44:42;;;;;;;0.68;0.20;;;27.40;78.30;;;;;;5047823;28;20412;-83
2021/06/23 12:47:07;;;;;;;0.40;0.17;;;28.10;77.00;;;;;;5028206;28;20094;-83
2021/06/23 12:49:33;;;;;;;0.77;0.43;;;28.40;72.70;;;;;;5046414;28;20389;-83
2021/06/23 12:51:59;;;;;;;0.55;0.20;;;28.60;73.70;;;;;;5045765;28;20035;-83
2021/06/23 12:54:26;;;;;;;0.22;0.10;;;28.80;75.50;;;;;;5048175;28;20021;-84
2021/06/23 12:56:54;;;;;;;0.47;0.15;;;29.20;73.60;;;;;;5029436;28;20090;-83
2021/06/23 12:59:20;;;;;;;2.65;0.20;;;29.90;73.60;;;;;;5027540;28;20017;-83
2021/06/23 13:01:46;;;;;;;0.35;0.20;;;30.20;72.00;;;;;;5044652;28;20074;-82
2021/06/23 13:04:12;;;;;;;0.57;0.20;;;30.90;71.00;;;;;;5040147;28;20033;-83
2021/06/23 13:06:39;;;;;;;0.22;0.10;;;31.60;70.90;;;;;;5031354;28;20103;-83